Terminal Aerodrome Forecast
Issued by NWS

Home | Current Version | Previous Version | Text Only | Print | Product List | Glossary On
Versions: 1 2 3 4 5 6 7 8 9 10 11 12 13 14 15 16 17 18 19 20 21 22 23 24 25 26 27
266
FTUS43 KSGF 192334
TAFBBG
TAF
KBBG 192334Z 2000/2024 17015KT P6SM VCTS OVC035CB WS020/20040KT
      TEMPO 2000/2004 4SM TSRA OVC025CB
     FM200500 17011G21KT P6SM -SHRA OVC090 WS020/19055KT
     FM201000 18010KT P6SM -SHRA OVC040 WS020/20045KT
     FM201200 18010G20KT P6SM SHRA OVC035 WS020/20045KT
     FM201500 18010G21KT 3SM SHRA OVC015 WS020/20045KT
     FM201800 20012G25KT 3SM SHRA OVC015=

USA.gov is the U.S. government's official web portal to all federal, state and local government web resources and services.